sensor_id;sensor_type;location;lat;lon;timestamp;pressure;altitude;pressure_sealevel;temperature;humidity
42169;BME280;27838;43.858;25.974;2022-09-03T00:05:42;100899.59;;;20.35;74.99
42169;BME280;27838;43.858;25.974;2022-09-03T00:11:02;100908.69;;;20.28;74.36
42169;BME280;27838;43.858;25.974;2022-09-03T00:13:41;100918.47;;;20.26;74.41
42169;BME280;27838;43.858;25.974;2022-09-03T00:16:12;100928.38;;;20.21;74.55
42169;BME280;27838;43.858;25.974;2022-09-03T00:18:45;100937.25;;;20.18;74.43
42169;BME280;27838;43.858;25.974;2022-09-03T00:21:17;100943.50;;;20.17;74.78
42169;BME280;27838;43.858;25.974;2022-09-03T00:23:47;100940.78;;;20.18;74.82
42169;BME280;27838;43.858;25.974;2022-09-03T00:26:21;100948.75;;;20.18;74.61
42169;BME280;27838;43.858;25.974;2022-09-03T00:28:58;100950.56;;;20.16;74.52
42169;BME280;27838;43.858;25.974;2022-09-03T00:31:31;100955.97;;;20.13;74.55
42169;BME280;27838;43.858;25.974;2022-09-03T00:34:06;100949.00;;;20.11;74.53
42169;BME280;27838;43.858;25.974;2022-09-03T00:36:37;100951.81;;;20.06;74.63
42169;BME280;27838;43.858;25.974;2022-09-03T00:39:12;100952.03;;;20.00;74.97
42169;BME280;27838;43.858;25.974;2022-09-03T00:52:59;100969.31;;;20.10;75.30
42169;BME280;27838;43.858;25.974;2022-09-03T01:00:40;100964.22;;;20.04;74.90
42169;BME280;27838;43.858;25.974;2022-09-03T01:03:34;100968.56;;;20.07;74.94
42169;BME280;27838;43.858;25.974;2022-09-03T01:06:09;100964.22;;;20.04;74.85
42169;BME280;27838;43.858;25.974;2022-09-03T01:09:02;100957.22;;;20.03;74.73
42169;BME280;27838;43.858;25.974;2022-09-03T01:11:56;100958.25;;;19.99;74.48
42169;BME280;27838;43.858;25.974;2022-09-03T01:17:35;100962.72;;;19.97;74.94
42169;BME280;27838;43.858;25.974;2022-09-03T01:32:14;100983.03;;;19.96;74.64
42169;BME280;27838;43.858;25.974;2022-09-03T01:34:56;100985.63;;;19.98;73.96
42169;BME280;27838;43.858;25.974;2022-09-03T01:48:00;101001.59;;;19.95;73.90
42169;BME280;27838;43.858;25.974;2022-09-03T01:51:02;100987.66;;;19.90;74.16
42169;BME280;27838;43.858;25.974;2022-09-03T02:02:19;100966.94;;;19.77;73.72
42169;BME280;27838;43.858;25.974;2022-09-03T02:05:17;100970.63;;;19.72;73.72
42169;BME280;27838;43.858;25.974;2022-09-03T02:07:50;100975.25;;;19.65;73.67
42169;BME280;27838;43.858;25.974;2022-09-03T02:10:22;100971.78;;;19.63;73.73
42169;BME280;27838;43.858;25.974;2022-09-03T02:12:54;100979.00;;;19.58;74.04
42169;BME280;27838;43.858;25.974;2022-09-03T02:15:24;100984.25;;;19.59;74.18
42169;BME280;27838;43.858;25.974;2022-09-03T02:17:54;100990.41;;;19.60;74.29
42169;BME280;27838;43.858;25.974;2022-09-03T02:20:26;100989.50;;;19.61;74.20
42169;BME280;27838;43.858;25.974;2022-09-03T02:22:55;100991.13;;;19.65;73.45
42169;BME280;27838;43.858;25.974;2022-09-03T02:25:25;100994.59;;;19.66;73.10
42169;BME280;27838;43.858;25.974;2022-09-03T02:27:54;100991.06;;;19.67;73.15
42169;BME280;27838;43.858;25.974;2022-09-03T02:30:21;100990.22;;;19.66;73.28
42169;BME280;27838;43.858;25.974;2022-09-03T02:32:48;100991.97;;;19.66;73.00
42169;BME280;27838;43.858;25.974;2022-09-03T02:35:14;100989.31;;;19.66;73.01
42169;BME280;27838;43.858;25.974;2022-09-03T02:37:41;100993.84;;;19.62;72.97
42169;BME280;27838;43.858;25.974;2022-09-03T02:40:08;100988.78;;;19.56;73.48
42169;BME280;27838;43.858;25.974;2022-09-03T02:42:35;100986.75;;;19.64;73.43
42169;BME280;27838;43.858;25.974;2022-09-03T02:47:49;100983.09;;;19.68;73.38
42169;BME280;27838;43.858;25.974;2022-09-03T02:50:17;100989.06;;;19.75;73.62
42169;BME280;27838;43.858;25.974;2022-09-03T02:52:44;100998.66;;;19.77;73.26
42169;BME280;27838;43.858;25.974;2022-09-03T02:55:11;100998.66;;;19.77;73.20
42169;BME280;27838;43.858;25.974;2022-09-03T02:57:37;100995.13;;;19.78;73.09
42169;BME280;27838;43.858;25.974;2022-09-03T03:00:04;100997.66;;;19.82;73.11
42169;BME280;27838;43.858;25.974;2022-09-03T03:02:32;100999.38;;;19.83;73.19
42169;BME280;27838;43.858;25.974;2022-09-03T03:04:58;101001.13;;;19.84;73.27
42169;BME280;27838;43.858;25.974;2022-09-03T03:07:27;101001.13;;;19.84;73.34
42169;BME280;27838;43.858;25.974;2022-09-03T03:09:57;101000.22;;;19.83;73.43
42169;BME280;27838;43.858;25.974;2022-09-03T03:12:24;101002.00;;;19.83;73.59
42169;BME280;27838;43.858;25.974;2022-09-03T03:14:50;101002.06;;;19.81;73.47
42169;BME280;27838;43.858;25.974;2022-09-03T03:17:17;100996.81;;;19.79;73.32
42169;BME280;27838;43.858;25.974;2022-09-03T03:19:43;100995.91;;;19.80;73.25
42169;BME280;27838;43.858;25.974;2022-09-03T03:22:10;100988.88;;;19.79;73.03
42169;BME280;27838;43.858;25.974;2022-09-03T03:24:36;100995.97;;;19.79;73.31
42169;BME280;27838;43.858;25.974;2022-09-03T03:27:03;100995.13;;;19.78;73.13
42169;BME280;27838;43.858;25.974;2022-09-03T03:29:31;101000.41;;;19.78;73.27
42169;BME280;27838;43.858;25.974;2022-09-03T03:31:58;100998.66;;;19.77;73.36
42169;BME280;27838;43.858;25.974;2022-09-03T03:34:25;101010.03;;;19.79;73.25
42169;BME280;27838;43.858;25.974;2022-09-03T03:36:51;101002.25;;;19.76;73.20
42169;BME280;27838;43.858;25.974;2022-09-03T03:39:18;101000.41;;;19.78;72.92
42169;BME280;27838;43.858;25.974;2022-09-03T03:41:45;101000.34;;;19.80;73.16
42169;BME280;27838;43.858;25.974;2022-09-03T03:44:11;100997.75;;;19.78;72.96
42169;BME280;27838;43.858;25.974;2022-09-03T03:46:40;101005.75;;;19.77;73.12
42169;BME280;27838;43.858;25.974;2022-09-03T03:49:07;101003.94;;;19.77;73.32
42169;BME280;27838;43.858;25.974;2022-09-03T03:51:35;101007.53;;;19.76;72.98
42169;BME280;27838;43.858;25.974;2022-09-03T03:54:02;101011.97;;;19.74;73.66
42169;BME280;27838;43.858;25.974;2022-09-03T03:56:29;101015.50;;;19.75;73.43
42169;BME280;27838;43.858;25.974;2022-09-03T03:58:57;101015.47;;;19.76;73.50
42169;BME280;27838;43.858;25.974;2022-09-03T04:01:26;101018.16;;;19.75;73.55
42169;BME280;27838;43.858;25.974;2022-09-03T04:03:56;101025.25;;;19.73;73.75
42169;BME280;27838;43.858;25.974;2022-09-03T04:06:24;101018.25;;;19.70;73.40
42169;BME280;27838;43.858;25.974;2022-09-03T04:08:51;101019.28;;;19.66;73.20
42169;BME280;27838;43.858;25.974;2022-09-03T04:11:20;101017.50;;;19.67;72.73
42169;BME280;27838;43.858;25.974;2022-09-03T04:13:47;101027.22;;;19.66;72.50
42169;BME280;27838;43.858;25.974;2022-09-03T04:16:22;101028.03;;;19.68;72.69
42169;BME280;27838;43.858;25.974;2022-09-03T04:18:49;101023.78;;;19.64;72.64
42169;BME280;27838;43.858;25.974;2022-09-03T04:21:21;101035.97;;;19.68;72.32
42169;BME280;27838;43.858;25.974;2022-09-03T04:23:49;101039.50;;;19.67;71.85
42169;BME280;27838;43.858;25.974;2022-09-03T04:26:19;101044.81;;;19.67;71.82
42169;BME280;27838;43.858;25.974;2022-09-03T04:28:46;101046.63;;;19.65;71.75
42169;BME280;27838;43.858;25.974;2022-09-03T04:31:15;101050.25;;;19.62;71.67
42169;BME280;27838;43.858;25.974;2022-09-03T04:33:42;101053.84;;;19.60;71.83
42169;BME280;27838;43.858;25.974;2022-09-03T04:36:13;101051.25;;;19.58;71.88
42169;BME280;27838;43.858;25.974;2022-09-03T04:38:42;101048.56;;;19.60;71.52
42169;BME280;27838;43.858;25.974;2022-09-03T04:41:11;101047.75;;;19.58;71.35
42169;BME280;27838;43.858;25.974;2022-09-03T04:43:38;101045.13;;;19.58;71.95
42169;BME280;27838;43.858;25.974;2022-09-03T04:46:06;101052.22;;;19.56;71.78
42169;BME280;27838;43.858;25.974;2022-09-03T04:48:34;101048.66;;;19.57;72.09
42169;BME280;27838;43.858;25.974;2022-09-03T04:51:06;101047.00;;;19.54;72.13
42169;BME280;27838;43.858;25.974;2022-09-03T04:53:36;101056.53;;;19.58;71.86
42169;BME280;27838;43.858;25.974;2022-09-03T04:56:11;101058.38;;;19.56;71.80
42169;BME280;27838;43.858;25.974;2022-09-03T04:58:39;101057.56;;;19.54;71.88
42169;BME280;27838;43.858;25.974;2022-09-03T05:01:12;101057.53;;;19.56;72.26
42169;BME280;27838;43.858;25.974;2022-09-03T05:03:40;101066.25;;;19.58;71.70
42169;BME280;27838;43.858;25.974;2022-09-03T05:06:07;101060.00;;;19.60;71.52
42169;BME280;27838;43.858;25.974;2022-09-03T05:08:34;101071.47;;;19.61;71.47
42169;BME280;27838;43.858;25.974;2022-09-03T05:11:06;101071.56;;;19.58;71.62
42169;BME280;27838;43.858;25.974;2022-09-03T05:13:34;101069.81;;;19.57;71.34
42169;BME280;27838;43.858;25.974;2022-09-03T05:16:08;101068.19;;;19.53;71.66
42169;BME280;27838;43.858;25.974;2022-09-03T05:18:36;101062.03;;;19.52;71.69
42169;BME280;27838;43.858;25.974;2022-09-03T05:21:05;101076.06;;;19.54;71.47
42169;BME280;27838;43.858;25.974;2022-09-03T05:23:37;101084.81;;;19.56;71.26
42169;BME280;27838;43.858;25.974;2022-09-03T05:26:05;101082.13;;;19.58;71.51
42169;BME280;27838;43.858;25.974;2022-09-03T05:28:34;101084.69;;;19.61;71.10
42169;BME280;27838;43.858;25.974;2022-09-03T05:31:05;101084.69;;;19.61;71.25
42169;BME280;27838;43.858;25.974;2022-09-03T05:33:40;101081.09;;;19.62;71.20
42169;BME280;27838;43.858;25.974;2022-09-03T05:36:11;101089.81;;;19.66;71.37
42169;BME280;27838;43.858;25.974;2022-09-03T05:38:38;101088.00;;;19.68;71.18
42169;BME280;27838;43.858;25.974;2022-09-03T05:41:08;101087.09;;;19.67;70.94
42169;BME280;27838;43.858;25.974;2022-09-03T05:43:35;101084.63;;;19.62;71.13
42169;BME280;27838;43.858;25.974;2022-09-03T05:46:04;101083.88;;;19.59;70.92
42169;BME280;27838;43.858;25.974;2022-09-03T05:48:33;101092.69;;;19.58;70.89
42169;BME280;27838;43.858;25.974;2022-09-03T05:51:05;101089.16;;;19.59;71.11
42169;BME280;27838;43.858;25.974;2022-09-03T05:53:35;101092.63;;;19.61;71.14
42169;BME280;27838;43.858;25.974;2022-09-03T05:56:08;101101.44;;;19.60;71.05
42169;BME280;27838;43.858;25.974;2022-09-03T05:58:41;101101.53;;;19.57;71.25
42169;BME280;27838;43.858;25.974;2022-09-03T06:01:39;101104.91;;;19.62;71.24
42169;BME280;27838;43.858;25.974;2022-09-03T06:04:13;101104.91;;;19.62;71.42
42169;BME280;27838;43.858;25.974;2022-09-03T06:06:45;101109.34;;;19.61;71.41
42169;BME280;27838;43.858;25.974;2022-09-03T06:09:14;101104.03;;;19.61;71.77
42169;BME280;27838;43.858;25.974;2022-09-03T06:11:43;101109.34;;;19.61;72.08
42169;BME280;27838;43.858;25.974;2022-09-03T06:14:11;101113.75;;;19.61;72.11
42169;BME280;27838;43.858;25.974;2022-09-03T06:16:43;101116.59;;;19.55;72.10
42169;BME280;27838;43.858;25.974;2022-09-03T06:19:11;101122.69;;;19.57;72.11
42169;BME280;27838;43.858;25.974;2022-09-03T06:21:40;101121.78;;;19.58;71.94
42169;BME280;27838;43.858;25.974;2022-09-03T06:24:25;101127.78;;;19.63;71.89
42169;BME280;27838;43.858;25.974;2022-09-03T06:26:54;101124.25;;;19.64;71.98
42169;BME280;27838;43.858;25.974;2022-09-03T06:29:21;101128.69;;;19.62;72.21
42169;BME280;27838;43.858;25.974;2022-09-03T06:31:48;101127.06;;;19.58;72.53
42169;BME280;27838;43.858;25.974;2022-09-03T06:34:15;101133.25;;;19.57;72.06
42169;BME280;27838;43.858;25.974;2022-09-03T06:36:43;101125.41;;;19.55;72.24
42169;BME280;27838;43.858;25.974;2022-09-03T06:39:09;101128.75;;;19.60;72.54
42169;BME280;27838;43.858;25.974;2022-09-03T06:41:36;101127.72;;;19.66;72.08
42169;BME280;27838;43.858;25.974;2022-09-03T06:44:05;101133.84;;;19.67;71.95
42169;BME280;27838;43.858;25.974;2022-09-03T06:46:36;101147.03;;;19.68;71.89
42169;BME280;27838;43.858;25.974;2022-09-03T06:49:03;101145.28;;;19.67;71.75
42169;BME280;27838;43.858;25.974;2022-09-03T06:51:31;101126.91;;;19.64;71.61
42169;BME280;27838;43.858;25.974;2022-09-03T06:54:01;101138.13;;;19.71;71.71
42169;BME280;27838;43.858;25.974;2022-09-03T06:56:28;101146.84;;;19.74;71.75
42169;BME280;27838;43.858;25.974;2022-09-03T06:59:02;101132.88;;;19.69;72.01
42169;BME280;27838;43.858;25.974;2022-09-03T07:01:30;101145.16;;;19.72;71.69
42169;BME280;27838;43.858;25.974;2022-09-03T07:04:02;101150.34;;;19.76;71.63
42169;BME280;27838;43.858;25.974;2022-09-03T07:06:30;101153.84;;;19.77;71.64
42169;BME280;27838;43.858;25.974;2022-09-03T07:08:58;101159.94;;;19.79;71.54
42169;BME280;27838;43.858;25.974;2022-09-03T07:11:27;101159.94;;;19.79;71.47
42169;BME280;27838;43.858;25.974;2022-09-03T07:13:56;101154.69;;;19.77;71.32
42169;BME280;27838;43.858;25.974;2022-09-03T07:16:34;101161.72;;;19.78;71.15
42169;BME280;27838;43.858;25.974;2022-09-03T07:19:02;101165.22;;;19.79;71.10
42169;BME280;27838;43.858;25.974;2022-09-03T07:21:30;101166.94;;;19.82;71.36
42169;BME280;27838;43.858;25.974;2022-09-03T07:23:58;101169.63;;;19.80;71.13
42169;BME280;27838;43.858;25.974;2022-09-03T07:26:29;101167.84;;;19.80;71.47
42169;BME280;27838;43.858;25.974;2022-09-03T07:28:57;101172.91;;;19.87;71.83
42169;BME280;27838;43.858;25.974;2022-09-03T07:31:30;101174.66;;;19.88;71.49
42169;BME280;27838;43.858;25.974;2022-09-03T07:34:02;101179.94;;;19.88;71.62
42169;BME280;27838;43.858;25.974;2022-09-03T07:36:34;101165.91;;;19.86;71.57
42169;BME280;27838;43.858;25.974;2022-09-03T07:39:03;101169.31;;;19.89;71.67
42169;BME280;27838;43.858;25.974;2022-09-03T07:41:30;101174.56;;;19.91;71.59
42169;BME280;27838;43.858;25.974;2022-09-03T07:43:58;101177.13;;;19.94;71.17
42169;BME280;27838;43.858;25.974;2022-09-03T07:46:30;101171.66;;;19.98;70.90
42169;BME280;27838;43.858;25.974;2022-09-03T07:48:58;101180.50;;;19.99;70.79
42169;BME280;27838;43.858;25.974;2022-09-03T07:51:27;101176.06;;;19.99;70.64
42169;BME280;27838;43.858;25.974;2022-09-03T07:54:00;101176.88;;;20.02;71.09
42169;BME280;27838;43.858;25.974;2022-09-03T07:56:28;101168.03;;;20.03;70.99
42169;BME280;27838;43.858;25.974;2022-09-03T07:58:56;101181.19;;;20.04;71.19
42169;BME280;27838;43.858;25.974;2022-09-03T08:01:24;101180.38;;;20.02;71.36
42169;BME280;27838;43.858;25.974;2022-09-03T08:03:52;101179.56;;;20.00;71.56
42169;BME280;27838;43.858;25.974;2022-09-03T08:06:21;101181.31;;;20.01;70.84
42169;BME280;27838;43.858;25.974;2022-09-03T08:08:54;101176.00;;;20.01;71.17
42169;BME280;27838;43.858;25.974;2022-09-03T08:11:23;101181.19;;;20.04;71.25
42169;BME280;27838;43.858;25.974;2022-09-03T08:13:57;101174.09;;;20.06;71.70
42169;BME280;27838;43.858;25.974;2022-09-03T08:16:26;101169.59;;;20.08;71.27
42169;BME280;27838;43.858;25.974;2022-09-03T08:18:54;101168.78;;;20.06;71.10
42169;BME280;27838;43.858;25.974;2022-09-03T08:21:21;101176.72;;;20.06;71.25
42169;BME280;27838;43.858;25.974;2022-09-03T08:23:51;101181.09;;;20.07;71.44
42169;BME280;27838;43.858;25.974;2022-09-03T08:26:19;101177.63;;;20.05;71.23
42169;BME280;27838;43.858;25.974;2022-09-03T08:28:47;101175.97;;;20.03;71.67
42169;BME280;27838;43.858;25.974;2022-09-03T08:31:19;101171.53;;;20.03;71.53
42169;BME280;27838;43.858;25.974;2022-09-03T08:33:48;101176.00;;;20.01;70.86
42169;BME280;27838;43.858;25.974;2022-09-03T08:36:17;101173.31;;;20.03;70.97
42169;BME280;27838;43.858;25.974;2022-09-03T08:38:45;101177.94;;;19.96;71.67
42169;BME280;27838;43.858;25.974;2022-09-03T08:49:32;101187.72;;;19.94;71.55
42169;BME280;27838;43.858;25.974;2022-09-03T08:52:04;101180.75;;;19.90;70.88
42169;BME280;27838;43.858;25.974;2022-09-03T08:54:34;101184.19;;;19.93;70.94
42169;BME280;27838;43.858;25.974;2022-09-03T08:57:02;101186.88;;;19.92;71.14
42169;BME280;27838;43.858;25.974;2022-09-03T08:59:30;101190.41;;;19.92;71.31
42169;BME280;27838;43.858;25.974;2022-09-03T09:02:16;101199.09;;;19.96;71.36
42169;BME280;27838;43.858;25.974;2022-09-03T09:05:08;101193.72;;;19.99;71.62
42169;BME280;27838;43.858;25.974;2022-09-03T09:10:13;101188.53;;;19.96;70.49
42169;BME280;27838;43.858;25.974;2022-09-03T09:15:42;101200.72;;;20.00;70.65
42169;BME280;27838;43.858;25.974;2022-09-03T09:18:54;101194.63;;;19.98;70.18
42169;BME280;27838;43.858;25.974;2022-09-03T09:21:27;101199.91;;;19.98;70.12
42169;BME280;27838;43.858;25.974;2022-09-03T09:24:00;101197.34;;;19.95;70.19
42169;BME280;27838;43.858;25.974;2022-09-03T09:26:28;101206.22;;;19.94;70.27
42169;BME280;27838;43.858;25.974;2022-09-03T09:29:06;101207.03;;;19.96;70.38
42169;BME280;27838;43.858;25.974;2022-09-03T09:31:35;101210.44;;;19.99;70.07
42169;BME280;27838;43.858;25.974;2022-09-03T09:34:04;101204.34;;;19.97;69.79
42169;BME280;27838;43.858;25.974;2022-09-03T09:36:40;101208.63;;;20.02;69.89
42169;BME280;27838;43.858;25.974;2022-09-03T09:39:09;101209.38;;;20.05;69.69
42169;BME280;27838;43.858;25.974;2022-09-03T09:41:36;101211.13;;;20.06;69.64
42169;BME280;27838;43.858;25.974;2022-09-03T09:44:03;101214.59;;;20.08;69.68
42169;BME280;27838;43.858;25.974;2022-09-03T09:46:38;101221.72;;;20.06;69.89
42169;BME280;27838;43.858;25.974;2022-09-03T09:52:13;101223.63;;;20.01;69.69
42169;BME280;27838;43.858;25.974;2022-09-03T09:54:43;101216.81;;;19.94;69.77
42169;BME280;27838;43.858;25.974;2022-09-03T09:57:22;101220.19;;;19.99;69.57
42169;BME280;27838;43.858;25.974;2022-09-03T09:59:49;101223.63;;;20.01;69.23
42169;BME280;27838;43.858;25.974;2022-09-03T10:02:22;101227.94;;;20.04;69.42
42169;BME280;27838;43.858;25.974;2022-09-03T10:04:55;101234.09;;;20.04;69.50
42169;BME280;27838;43.858;25.974;2022-09-03T10:07:28;101233.16;;;20.07;69.56
42169;BME280;27838;43.858;25.974;2022-09-03T10:10:05;101234.00;;;20.07;69.05
42169;BME280;27838;43.858;25.974;2022-09-03T10:12:41;101238.50;;;20.05;69.36
42169;BME280;27838;43.858;25.974;2022-09-03T10:20:30;101246.19;;;20.13;69.38
42169;BME280;27838;43.858;25.974;2022-09-03T10:28:26;101248.91;;;20.11;68.87
42169;BME280;27838;43.858;25.974;2022-09-03T10:36:16;101267.25;;;20.16;68.66
42169;BME280;27838;43.858;25.974;2022-09-03T10:38:49;101278.72;;;20.16;69.16
42169;BME280;27838;43.858;25.974;2022-09-03T10:55:28;101278.38;;;20.27;68.02
42169;BME280;27838;43.858;25.974;2022-09-03T11:00:52;101274.00;;;20.26;67.88
42169;BME280;27838;43.858;25.974;2022-09-03T11:06:28;101274.94;;;20.25;68.10
42169;BME280;27838;43.858;25.974;2022-09-03T11:09:00;101277.66;;;20.22;67.93
42169;BME280;27838;43.858;25.974;2022-09-03T11:11:37;101286.38;;;20.26;68.21
42169;BME280;27838;43.858;25.974;2022-09-03T11:14:14;101281.06;;;20.26;68.29
42169;BME280;27838;43.858;25.974;2022-09-03T11:16:53;101281.94;;;20.26;68.64
42169;BME280;27838;43.858;25.974;2022-09-03T11:19:32;101290.72;;;20.27;68.42
42169;BME280;27838;43.858;25.974;2022-09-03T11:22:00;101300.47;;;20.26;68.51
42169;BME280;27838;43.858;25.974;2022-09-03T11:24:30;101300.50;;;20.25;69.15
42169;BME280;27838;43.858;25.974;2022-09-03T11:30:06;101300.50;;;20.25;69.54
42169;BME280;27838;43.858;25.974;2022-09-03T11:35:27;101312.03;;;20.24;68.74
42169;BME280;27838;43.858;25.974;2022-09-03T11:38:01;101300.72;;;20.18;68.97
42169;BME280;27838;43.858;25.974;2022-09-03T11:40:35;101308.69;;;20.17;68.62
42169;BME280;27838;43.858;25.974;2022-09-03T11:43:28;101309.47;;;20.21;68.13
42169;BME280;27838;43.858;25.974;2022-09-03T11:46:09;101310.31;;;20.21;68.13
42169;BME280;27838;43.858;25.974;2022-09-03T11:48:46;101305.84;;;20.23;67.86
42169;BME280;27838;43.858;25.974;2022-09-03T11:54:22;101306.72;;;20.24;68.30
42169;BME280;27838;43.858;25.974;2022-09-03T11:56:50;101300.72;;;20.18;68.33
42169;BME280;27838;43.858;25.974;2022-09-03T11:59:28;101307.72;;;20.19;68.58
42169;BME280;27838;43.858;25.974;2022-09-03T12:04:50;101309.38;;;20.24;68.45
42169;BME280;27838;43.858;25.974;2022-09-03T12:10:28;101314.47;;;20.30;68.24
42169;BME280;27838;43.858;25.974;2022-09-03T12:13:15;101310.84;;;20.34;67.94
42169;BME280;27838;43.858;25.974;2022-09-03T12:18:25;101309.69;;;20.43;67.48
42169;BME280;27838;43.858;25.974;2022-09-03T12:23:54;101304.25;;;20.46;67.18
42169;BME280;27838;43.858;25.974;2022-09-03T12:26:22;101307.78;;;20.46;66.69
42169;BME280;27838;43.858;25.974;2022-09-03T12:28:58;101306.94;;;20.44;66.62
42169;BME280;27838;43.858;25.974;2022-09-03T12:31:28;101303.53;;;20.41;66.97
42169;BME280;27838;43.858;25.974;2022-09-03T12:34:01;101308.69;;;20.45;66.89
42169;BME280;27838;43.858;25.974;2022-09-03T12:36:42;101305.16;;;20.46;66.65
42169;BME280;27838;43.858;25.974;2022-09-03T12:39:17;101306.06;;;20.45;66.62
42169;BME280;27838;43.858;25.974;2022-09-03T12:44:25;101299.09;;;20.43;66.88
42169;BME280;27838;43.858;25.974;2022-09-03T12:49:36;101306.13;;;20.42;67.35
42169;BME280;27838;43.858;25.974;2022-09-03T12:52:49;101303.41;;;20.45;67.34
42169;BME280;27838;43.858;25.974;2022-09-03T12:57:36;101307.53;;;20.54;67.23
42169;BME280;27838;43.858;25.974;2022-09-03T13:00:09;101303.00;;;20.58;66.91
42169;BME280;27838;43.858;25.974;2022-09-03T13:05:20;101310.09;;;20.57;66.74
42169;BME280;27838;43.858;25.974;2022-09-03T13:07:51;101310.13;;;20.55;66.63
42169;BME280;27838;43.858;25.974;2022-09-03T13:10:29;101308.41;;;20.54;66.55
42169;BME280;27838;43.858;25.974;2022-09-03T13:13:01;101301.47;;;20.50;66.71
42169;BME280;27838;43.858;25.974;2022-09-03T13:15:29;101311.16;;;20.51;66.87
42169;BME280;27838;43.858;25.974;2022-09-03T13:18:22;101310.31;;;20.49;67.61
42169;BME280;27838;43.858;25.974;2022-09-03T13:21:13;101304.25;;;20.46;67.76
42169;BME280;27838;43.858;25.974;2022-09-03T13:26:49;101306.84;;;20.47;67.51
42169;BME280;27838;43.858;25.974;2022-09-03T13:32:35;101312.06;;;20.50;67.57
42169;BME280;27838;43.858;25.974;2022-09-03T13:37:39;101313.69;;;20.54;66.92
42169;BME280;27838;43.858;25.974;2022-09-03T13:40:43;101311.09;;;20.53;66.96
42169;BME280;27838;43.858;25.974;2022-09-03T13:43:59;101312.91;;;20.51;66.52
42169;BME280;27838;43.858;25.974;2022-09-03T13:49:52;101319.28;;;20.45;66.73
42169;BME280;27838;43.858;25.974;2022-09-03T13:53:05;101312.41;;;20.40;66.64
42169;BME280;27838;43.858;25.974;2022-09-03T13:55:43;101312.41;;;20.40;66.68
42169;BME280;27838;43.858;25.974;2022-09-03T13:58:41;101314.13;;;20.41;66.86
42169;BME280;27838;43.858;25.974;2022-09-03T14:01:20;101317.63;;;20.43;67.17
42169;BME280;27838;43.858;25.974;2022-09-03T14:03:52;101321.06;;;20.45;66.28
42169;BME280;27838;43.858;25.974;2022-09-03T14:09:13;101310.31;;;20.49;66.79
42169;BME280;27838;43.858;25.974;2022-09-03T14:14:43;101307.84;;;20.45;66.70
42169;BME280;27838;43.858;25.974;2022-09-03T14:22:55;101321.22;;;20.40;66.93
42169;BME280;27838;43.858;25.974;2022-09-03T14:25:26;101328.28;;;20.40;67.06
42169;BME280;27838;43.858;25.974;2022-09-03T14:28:12;101327.47;;;20.37;66.83
42169;BME280;27838;43.858;25.974;2022-09-03T14:30:50;101323.13;;;20.35;66.76
42169;BME280;27838;43.858;25.974;2022-09-03T14:36:11;101330.25;;;20.33;66.77
42169;BME280;27838;43.858;25.974;2022-09-03T14:39:30;101331.16;;;20.32;66.66
42169;BME280;27838;43.858;25.974;2022-09-03T14:42:06;101333.81;;;20.32;66.55
42169;BME280;27838;43.858;25.974;2022-09-03T14:44:47;101334.84;;;20.28;66.55
42169;BME280;27838;43.858;25.974;2022-09-03T14:50:17;101334.88;;;20.26;66.38
42169;BME280;27838;43.858;25.974;2022-09-03T15:01:28;101336.84;;;20.19;67.57
42169;BME280;27838;43.858;25.974;2022-09-03T15:04:24;101340.28;;;20.22;67.71
42169;BME280;27838;43.858;25.974;2022-09-03T15:13:00;101354.47;;;20.21;68.12
42169;BME280;27838;43.858;25.974;2022-09-03T15:20:48;101370.56;;;20.13;68.73
42169;BME280;27838;43.858;25.974;2022-09-03T15:23:22;101373.19;;;20.13;68.89
42169;BME280;27838;43.858;25.974;2022-09-03T15:31:21;101361.59;;;20.18;68.09
42169;BME280;27838;43.858;25.974;2022-09-03T15:33:58;101364.13;;;20.22;68.02
42169;BME280;27838;43.858;25.974;2022-09-03T15:36:35;101370.47;;;20.16;68.29
42169;BME280;27838;43.858;25.974;2022-09-03T15:39:12;101367.88;;;20.14;68.93
42169;BME280;27838;43.858;25.974;2022-09-03T15:42:24;101370.75;;;20.07;69.24
42169;BME280;27838;43.858;25.974;2022-09-03T15:44:55;101369.91;;;20.06;69.19
42169;BME280;27838;43.858;25.974;2022-09-03T15:50:34;101382.19;;;20.07;69.38
42169;BME280;27838;43.858;25.974;2022-09-03T15:55:38;101386.75;;;20.02;69.66
42169;BME280;27838;43.858;25.974;2022-09-03T16:00:48;101390.38;;;19.99;69.84
42169;BME280;27838;43.858;25.974;2022-09-03T16:03:19;101391.31;;;19.97;69.43
42169;BME280;27838;43.858;25.974;2022-09-03T16:06:01;101392.31;;;19.93;69.56
42169;BME280;27838;43.858;25.974;2022-09-03T16:16:50;101398.03;;;19.77;70.83
42169;BME280;27838;43.858;25.974;2022-09-03T16:19:41;101407.78;;;19.75;71.11
42169;BME280;27838;43.858;25.974;2022-09-03T16:22:19;101412.31;;;19.70;71.29
42169;BME280;27838;43.858;25.974;2022-09-03T16:25:09;101411.53;;;19.67;71.15
42169;BME280;27838;43.858;25.974;2022-09-03T16:27:49;101401.84;;;19.66;70.92
42169;BME280;27838;43.858;25.974;2022-09-03T16:30:42;101401.91;;;19.64;71.27
42169;BME280;27838;43.858;25.974;2022-09-03T16:33:45;101401.06;;;19.62;71.83
42169;BME280;27838;43.858;25.974;2022-09-03T16:38:54;101396.50;;;19.67;71.09
42169;BME280;27838;43.858;25.974;2022-09-03T16:47:16;101409.13;;;19.57;70.96
42169;BME280;27838;43.858;25.974;2022-09-03T16:50:07;101410.06;;;19.55;70.86
42169;BME280;27838;43.858;25.974;2022-09-03T17:01:53;101418.38;;;19.39;71.36
42169;BME280;27838;43.858;25.974;2022-09-03T17:07:23;101422.00;;;19.37;71.39